sensor_id;sensor_type;location;lat;lon;timestamp;P1;durP1;ratioP1;P2;durP2;ratioP2
42988;SDS011;28622;43.716;20.668;2022-12-08T00:01:14;6.43;;;4.35;;
42988;SDS011;28622;43.716;20.668;2022-12-08T00:03:41;9.15;;;5.07;;
42988;SDS011;28622;43.716;20.668;2022-12-08T00:06:11;8.40;;;4.25;;
42988;SDS011;28622;43.716;20.668;2022-12-08T00:09:13;9.38;;;3.63;;
42988;SDS011;28622;43.716;20.668;2022-12-08T00:11:47;9.02;;;3.60;;
42988;SDS011;28622;43.716;20.668;2022-12-08T00:14:17;8.02;;;4.50;;
42988;SDS011;28622;43.716;20.668;2022-12-08T00:16:43;11.57;;;5.50;;
42988;SDS011;28622;43.716;20.668;2022-12-08T00:19:09;9.32;;;4.80;;
42988;SDS011;28622;43.716;20.668;2022-12-08T00:21:35;9.25;;;4.60;;
42988;SDS011;28622;43.716;20.668;2022-12-08T00:24:01;8.30;;;4.07;;
42988;SDS011;28622;43.716;20.668;2022-12-08T00:26:27;10.90;;;5.05;;
42988;SDS011;28622;43.716;20.668;2022-12-08T00:28:53;9.75;;;3.90;;
42988;SDS011;28622;43.716;20.668;2022-12-08T00:31:19;8.90;;;4.03;;
42988;SDS011;28622;43.716;20.668;2022-12-08T00:33:44;7.72;;;3.92;;
42988;SDS011;28622;43.716;20.668;2022-12-08T00:36:11;6.97;;;4.00;;
42988;SDS011;28622;43.716;20.668;2022-12-08T00:38:38;7.80;;;3.50;;
42988;SDS011;28622;43.716;20.668;2022-12-08T00:41:11;6.32;;;3.45;;
42988;SDS011;28622;43.716;20.668;2022-12-08T00:43:38;6.70;;;3.75;;
42988;SDS011;28622;43.716;20.668;2022-12-08T00:46:04;5.85;;;2.97;;
42988;SDS011;28622;43.716;20.668;2022-12-08T00:48:30;5.15;;;2.60;;
42988;SDS011;28622;43.716;20.668;2022-12-08T00:50:56;5.60;;;2.45;;
42988;SDS011;28622;43.716;20.668;2022-12-08T00:53:21;5.65;;;2.78;;
42988;SDS011;28622;43.716;20.668;2022-12-08T00:55:47;5.93;;;3.22;;
42988;SDS011;28622;43.716;20.668;2022-12-08T00:58:13;5.43;;;2.63;;
42988;SDS011;28622;43.716;20.668;2022-12-08T01:00:39;6.88;;;3.30;;
42988;SDS011;28622;43.716;20.668;2022-12-08T01:03:08;4.82;;;3.10;;
42988;SDS011;28622;43.716;20.668;2022-12-08T01:05:37;4.95;;;2.75;;
42988;SDS011;28622;43.716;20.668;2022-12-08T01:08:06;6.28;;;3.03;;
42988;SDS011;28622;43.716;20.668;2022-12-08T01:10:36;4.05;;;2.33;;
42988;SDS011;28622;43.716;20.668;2022-12-08T01:13:02;9.00;;;3.40;;
42988;SDS011;28622;43.716;20.668;2022-12-08T01:15:29;4.40;;;2.58;;
42988;SDS011;28622;43.716;20.668;2022-12-08T01:17:54;5.72;;;2.63;;
42988;SDS011;28622;43.716;20.668;2022-12-08T01:20:20;7.50;;;3.55;;
42988;SDS011;28622;43.716;20.668;2022-12-08T01:22:46;6.40;;;3.35;;
42988;SDS011;28622;43.716;20.668;2022-12-08T01:25:12;4.90;;;2.80;;
42988;SDS011;28622;43.716;20.668;2022-12-08T01:27:38;6.03;;;3.13;;
42988;SDS011;28622;43.716;20.668;2022-12-08T01:30:04;5.47;;;2.85;;
42988;SDS011;28622;43.716;20.668;2022-12-08T01:32:30;7.97;;;3.10;;
42988;SDS011;28622;43.716;20.668;2022-12-08T01:34:56;4.95;;;2.97;;
42988;SDS011;28622;43.716;20.668;2022-12-08T01:37:21;6.80;;;2.75;;
42988;SDS011;28622;43.716;20.668;2022-12-08T01:39:47;6.20;;;3.20;;
42988;SDS011;28622;43.716;20.668;2022-12-08T01:42:17;7.40;;;3.00;;
42988;SDS011;28622;43.716;20.668;2022-12-08T01:47:11;6.00;;;3.42;;
42988;SDS011;28622;43.716;20.668;2022-12-08T01:49:37;9.43;;;4.07;;
42988;SDS011;28622;43.716;20.668;2022-12-08T01:52:13;6.07;;;3.53;;
42988;SDS011;28622;43.716;20.668;2022-12-08T01:55:03;7.22;;;2.90;;
42988;SDS011;28622;43.716;20.668;2022-12-08T01:57:42;6.13;;;3.22;;
42988;SDS011;28622;43.716;20.668;2022-12-08T02:00:13;6.20;;;3.20;;
42988;SDS011;28622;43.716;20.668;2022-12-08T02:05:19;8.30;;;3.97;;
42988;SDS011;28622;43.716;20.668;2022-12-08T02:07:47;6.43;;;3.45;;
42988;SDS011;28622;43.716;20.668;2022-12-08T02:10:15;7.90;;;3.70;;
42988;SDS011;28622;43.716;20.668;2022-12-08T02:12:43;5.45;;;2.85;;
42988;SDS011;28622;43.716;20.668;2022-12-08T02:15:09;5.20;;;3.20;;
42988;SDS011;28622;43.716;20.668;2022-12-08T02:17:40;7.70;;;3.80;;
42988;SDS011;28622;43.716;20.668;2022-12-08T02:25:51;6.50;;;3.50;;
42988;SDS011;28622;43.716;20.668;2022-12-08T02:39:42;8.25;;;4.18;;
42988;SDS011;28622;43.716;20.668;2022-12-08T02:42:31;7.10;;;4.25;;
42988;SDS011;28622;43.716;20.668;2022-12-08T02:45:10;8.60;;;4.07;;
42988;SDS011;28622;43.716;20.668;2022-12-08T02:47:48;9.52;;;3.88;;
42988;SDS011;28622;43.716;20.668;2022-12-08T02:50:15;10.50;;;4.30;;
42988;SDS011;28622;43.716;20.668;2022-12-08T02:52:44;6.35;;;3.60;;
42988;SDS011;28622;43.716;20.668;2022-12-08T03:00:46;5.32;;;2.65;;
42988;SDS011;28622;43.716;20.668;2022-12-08T03:03:29;6.93;;;3.20;;
42988;SDS011;28622;43.716;20.668;2022-12-08T03:14:13;7.10;;;2.78;;
42988;SDS011;28622;43.716;20.668;2022-12-08T03:16:42;3.70;;;2.17;;
42988;SDS011;28622;43.716;20.668;2022-12-08T03:19:22;3.72;;;2.03;;
42988;SDS011;28622;43.716;20.668;2022-12-08T03:21:51;4.03;;;2.22;;
42988;SDS011;28622;43.716;20.668;2022-12-08T03:24:24;7.22;;;2.60;;
42988;SDS011;28622;43.716;20.668;2022-12-08T03:26:51;6.18;;;3.08;;
42988;SDS011;28622;43.716;20.668;2022-12-08T03:31:53;3.58;;;2.60;;
42988;SDS011;28622;43.716;20.668;2022-12-08T03:34:22;7.13;;;3.33;;
42988;SDS011;28622;43.716;20.668;2022-12-08T03:36:52;5.28;;;2.63;;
42988;SDS011;28622;43.716;20.668;2022-12-08T03:39:17;6.07;;;3.03;;
42988;SDS011;28622;43.716;20.668;2022-12-08T03:41:44;4.68;;;2.63;;
42988;SDS011;28622;43.716;20.668;2022-12-08T03:44:11;7.88;;;2.80;;
42988;SDS011;28622;43.716;20.668;2022-12-08T03:46:36;4.97;;;2.80;;
42988;SDS011;28622;43.716;20.668;2022-12-08T03:49:02;5.90;;;2.58;;
42988;SDS011;28622;43.716;20.668;2022-12-08T03:51:28;5.03;;;2.95;;
42988;SDS011;28622;43.716;20.668;2022-12-08T03:53:54;7.43;;;3.70;;
42988;SDS011;28622;43.716;20.668;2022-12-08T03:56:30;10.55;;;4.35;;
42988;SDS011;28622;43.716;20.668;2022-12-08T03:59:00;8.88;;;4.20;;
42988;SDS011;28622;43.716;20.668;2022-12-08T04:01:26;7.22;;;3.20;;
42988;SDS011;28622;43.716;20.668;2022-12-08T04:03:52;10.07;;;4.10;;
42988;SDS011;28622;43.716;20.668;2022-12-08T04:06:19;7.93;;;4.43;;
42988;SDS011;28622;43.716;20.668;2022-12-08T04:08:45;7.75;;;3.80;;
42988;SDS011;28622;43.716;20.668;2022-12-08T04:11:11;7.82;;;4.40;;
42988;SDS011;28622;43.716;20.668;2022-12-08T04:13:38;6.78;;;3.97;;
42988;SDS011;28622;43.716;20.668;2022-12-08T04:16:05;7.03;;;3.72;;
42988;SDS011;28622;43.716;20.668;2022-12-08T04:18:32;6.22;;;3.22;;
42988;SDS011;28622;43.716;20.668;2022-12-08T04:20:58;6.03;;;2.88;;
42988;SDS011;28622;43.716;20.668;2022-12-08T04:23:24;4.95;;;2.85;;
42988;SDS011;28622;43.716;20.668;2022-12-08T04:25:50;4.28;;;2.72;;
42988;SDS011;28622;43.716;20.668;2022-12-08T04:28:16;5.88;;;2.97;;
42988;SDS011;28622;43.716;20.668;2022-12-08T04:30:42;7.70;;;3.92;;
42988;SDS011;28622;43.716;20.668;2022-12-08T04:33:08;9.07;;;3.72;;
42988;SDS011;28622;43.716;20.668;2022-12-08T04:35:34;7.85;;;4.18;;
42988;SDS011;28622;43.716;20.668;2022-12-08T04:38:00;6.68;;;3.72;;
42988;SDS011;28622;43.716;20.668;2022-12-08T04:40:26;8.20;;;4.45;;
42988;SDS011;28622;43.716;20.668;2022-12-08T04:42:52;8.55;;;4.53;;
42988;SDS011;28622;43.716;20.668;2022-12-08T04:45:18;8.35;;;3.47;;
42988;SDS011;28622;43.716;20.668;2022-12-08T04:47:44;6.97;;;3.80;;
42988;SDS011;28622;43.716;20.668;2022-12-08T04:50:09;6.53;;;3.60;;
42988;SDS011;28622;43.716;20.668;2022-12-08T04:52:35;7.40;;;3.45;;
42988;SDS011;28622;43.716;20.668;2022-12-08T04:55:01;7.97;;;4.55;;
42988;SDS011;28622;43.716;20.668;2022-12-08T04:57:27;6.20;;;3.85;;
42988;SDS011;28622;43.716;20.668;2022-12-08T04:59:53;8.77;;;4.10;;
42988;SDS011;28622;43.716;20.668;2022-12-08T05:02:19;7.88;;;4.50;;
42988;SDS011;28622;43.716;20.668;2022-12-08T05:04:45;8.93;;;3.88;;
42988;SDS011;28622;43.716;20.668;2022-12-08T05:07:11;11.48;;;5.25;;
42988;SDS011;28622;43.716;20.668;2022-12-08T05:09:37;9.57;;;4.93;;
42988;SDS011;28622;43.716;20.668;2022-12-08T05:12:03;11.35;;;5.25;;
42988;SDS011;28622;43.716;20.668;2022-12-08T05:14:32;7.82;;;4.57;;
42988;SDS011;28622;43.716;20.668;2022-12-08T05:17:00;8.60;;;4.60;;
42988;SDS011;28622;43.716;20.668;2022-12-08T05:19:27;10.38;;;4.65;;
42988;SDS011;28622;43.716;20.668;2022-12-08T05:21:52;9.57;;;5.35;;
42988;SDS011;28622;43.716;20.668;2022-12-08T05:24:18;9.90;;;5.38;;
42988;SDS011;28622;43.716;20.668;2022-12-08T05:26:44;8.27;;;4.75;;
42988;SDS011;28622;43.716;20.668;2022-12-08T05:29:10;11.05;;;5.30;;
42988;SDS011;28622;43.716;20.668;2022-12-08T05:31:36;13.05;;;4.85;;
42988;SDS011;28622;43.716;20.668;2022-12-08T05:34:02;10.32;;;4.93;;
42988;SDS011;28622;43.716;20.668;2022-12-08T05:36:27;8.88;;;5.25;;
42988;SDS011;28622;43.716;20.668;2022-12-08T05:38:55;15.40;;;6.55;;
42988;SDS011;28622;43.716;20.668;2022-12-08T05:41:22;10.43;;;4.80;;
42988;SDS011;28622;43.716;20.668;2022-12-08T05:43:48;9.88;;;4.60;;
42988;SDS011;28622;43.716;20.668;2022-12-08T05:46:14;10.25;;;5.13;;
42988;SDS011;28622;43.716;20.668;2022-12-08T05:48:40;10.70;;;5.05;;
42988;SDS011;28622;43.716;20.668;2022-12-08T05:51:08;12.25;;;5.72;;
42988;SDS011;28622;43.716;20.668;2022-12-08T05:53:45;15.70;;;6.88;;
42988;SDS011;28622;43.716;20.668;2022-12-08T05:56:11;11.20;;;5.68;;
42988;SDS011;28622;43.716;20.668;2022-12-08T05:58:37;11.95;;;6.47;;
42988;SDS011;28622;43.716;20.668;2022-12-08T06:01:03;11.98;;;6.00;;
42988;SDS011;28622;43.716;20.668;2022-12-08T06:03:29;13.75;;;6.25;;
42988;SDS011;28622;43.716;20.668;2022-12-08T06:05:54;11.35;;;5.85;;
42988;SDS011;28622;43.716;20.668;2022-12-08T06:08:20;14.18;;;6.18;;
42988;SDS011;28622;43.716;20.668;2022-12-08T06:10:46;10.93;;;5.72;;
42988;SDS011;28622;43.716;20.668;2022-12-08T06:13:12;9.63;;;5.50;;
42988;SDS011;28622;43.716;20.668;2022-12-08T06:15:39;15.30;;;6.97;;
42988;SDS011;28622;43.716;20.668;2022-12-08T06:18:05;14.18;;;6.65;;
42988;SDS011;28622;43.716;20.668;2022-12-08T06:20:32;14.68;;;8.43;;
42988;SDS011;28622;43.716;20.668;2022-12-08T06:23:00;13.32;;;7.65;;
42988;SDS011;28622;43.716;20.668;2022-12-08T06:25:27;17.35;;;8.25;;
42988;SDS011;28622;43.716;20.668;2022-12-08T06:27:53;10.40;;;5.75;;
42988;SDS011;28622;43.716;20.668;2022-12-08T06:30:18;11.13;;;5.43;;
42988;SDS011;28622;43.716;20.668;2022-12-08T06:32:44;9.63;;;4.18;;
42988;SDS011;28622;43.716;20.668;2022-12-08T06:35:10;11.63;;;5.10;;
42988;SDS011;28622;43.716;20.668;2022-12-08T06:37:36;9.45;;;4.72;;
42988;SDS011;28622;43.716;20.668;2022-12-08T06:40:01;16.08;;;6.82;;
42988;SDS011;28622;43.716;20.668;2022-12-08T06:42:28;12.10;;;5.65;;
42988;SDS011;28622;43.716;20.668;2022-12-08T06:45:09;8.80;;;4.72;;
42988;SDS011;28622;43.716;20.668;2022-12-08T06:47:36;11.38;;;5.00;;
42988;SDS011;28622;43.716;20.668;2022-12-08T06:50:02;9.85;;;5.68;;
42988;SDS011;28622;43.716;20.668;2022-12-08T06:52:29;11.65;;;6.22;;
42988;SDS011;28622;43.716;20.668;2022-12-08T06:54:55;10.73;;;5.93;;
42988;SDS011;28622;43.716;20.668;2022-12-08T06:57:21;13.93;;;5.80;;
42988;SDS011;28622;43.716;20.668;2022-12-08T06:59:48;11.15;;;4.95;;
42988;SDS011;28622;43.716;20.668;2022-12-08T07:02:14;14.98;;;7.40;;
42988;SDS011;28622;43.716;20.668;2022-12-08T07:04:41;11.85;;;6.53;;
42988;SDS011;28622;43.716;20.668;2022-12-08T07:07:07;17.63;;;9.88;;
42988;SDS011;28622;43.716;20.668;2022-12-08T07:09:32;13.65;;;7.72;;
42988;SDS011;28622;43.716;20.668;2022-12-08T07:11:58;19.17;;;7.47;;
42988;SDS011;28622;43.716;20.668;2022-12-08T07:14:24;12.65;;;6.05;;
42988;SDS011;28622;43.716;20.668;2022-12-08T07:16:50;9.05;;;4.68;;
42988;SDS011;28622;43.716;20.668;2022-12-08T07:19:16;10.60;;;4.93;;
42988;SDS011;28622;43.716;20.668;2022-12-08T07:21:42;8.18;;;4.13;;
42988;SDS011;28622;43.716;20.668;2022-12-08T07:24:08;9.55;;;4.93;;
42988;SDS011;28622;43.716;20.668;2022-12-08T07:26:34;11.65;;;5.10;;
42988;SDS011;28622;43.716;20.668;2022-12-08T07:28:59;7.57;;;4.40;;
42988;SDS011;28622;43.716;20.668;2022-12-08T07:31:25;12.05;;;5.38;;
42988;SDS011;28622;43.716;20.668;2022-12-08T07:33:52;10.75;;;4.75;;
42988;SDS011;28622;43.716;20.668;2022-12-08T07:36:19;12.93;;;5.28;;
42988;SDS011;28622;43.716;20.668;2022-12-08T07:38:45;11.88;;;5.95;;
42988;SDS011;28622;43.716;20.668;2022-12-08T07:41:16;12.63;;;5.93;;
42988;SDS011;28622;43.716;20.668;2022-12-08T07:43:43;14.82;;;4.90;;
42988;SDS011;28622;43.716;20.668;2022-12-08T07:46:13;11.85;;;5.18;;
42988;SDS011;28622;43.716;20.668;2022-12-08T07:48:40;8.15;;;4.07;;
42988;SDS011;28622;43.716;20.668;2022-12-08T07:51:07;10.18;;;4.10;;
42988;SDS011;28622;43.716;20.668;2022-12-08T07:53:34;6.20;;;3.53;;
42988;SDS011;28622;43.716;20.668;2022-12-08T07:56:00;6.30;;;3.25;;
42988;SDS011;28622;43.716;20.668;2022-12-08T07:58:30;11.32;;;4.18;;
42988;SDS011;28622;43.716;20.668;2022-12-08T08:00:56;6.97;;;3.55;;
42988;SDS011;28622;43.716;20.668;2022-12-08T08:03:22;9.75;;;4.22;;
42988;SDS011;28622;43.716;20.668;2022-12-08T08:05:47;10.77;;;4.43;;
42988;SDS011;28622;43.716;20.668;2022-12-08T08:08:14;8.88;;;3.83;;
42988;SDS011;28622;43.716;20.668;2022-12-08T08:10:40;6.95;;;4.07;;
42988;SDS011;28622;43.716;20.668;2022-12-08T08:13:07;7.13;;;4.50;;
42988;SDS011;28622;43.716;20.668;2022-12-08T08:15:33;8.57;;;5.13;;
42988;SDS011;28622;43.716;20.668;2022-12-08T08:17:59;5.60;;;3.00;;
42988;SDS011;28622;43.716;20.668;2022-12-08T08:20:27;14.38;;;6.53;;
42988;SDS011;28622;43.716;20.668;2022-12-08T08:22:53;10.98;;;5.72;;
42988;SDS011;28622;43.716;20.668;2022-12-08T08:25:19;10.25;;;4.05;;
42988;SDS011;28622;43.716;20.668;2022-12-08T08:27:48;10.20;;;5.40;;
42988;SDS011;28622;43.716;20.668;2022-12-08T08:30:14;9.75;;;4.78;;
42988;SDS011;28622;43.716;20.668;2022-12-08T08:32:40;14.05;;;5.35;;
42988;SDS011;28622;43.716;20.668;2022-12-08T08:35:06;11.15;;;5.68;;
42988;SDS011;28622;43.716;20.668;2022-12-08T08:37:34;9.18;;;4.93;;
42988;SDS011;28622;43.716;20.668;2022-12-08T08:40:00;8.45;;;5.10;;
42988;SDS011;28622;43.716;20.668;2022-12-08T08:42:26;11.27;;;6.05;;
42988;SDS011;28622;43.716;20.668;2022-12-08T08:44:54;10.60;;;5.00;;
42988;SDS011;28622;43.716;20.668;2022-12-08T08:47:20;8.57;;;3.90;;
42988;SDS011;28622;43.716;20.668;2022-12-08T08:49:46;13.55;;;4.93;;
42988;SDS011;28622;43.716;20.668;2022-12-08T08:52:12;10.38;;;4.57;;
42988;SDS011;28622;43.716;20.668;2022-12-08T08:54:37;10.52;;;4.60;;
42988;SDS011;28622;43.716;20.668;2022-12-08T08:57:03;9.52;;;4.13;;
42988;SDS011;28622;43.716;20.668;2022-12-08T08:59:30;11.32;;;5.70;;
42988;SDS011;28622;43.716;20.668;2022-12-08T09:01:56;14.13;;;6.13;;
42988;SDS011;28622;43.716;20.668;2022-12-08T09:04:22;12.23;;;5.22;;
42988;SDS011;28622;43.716;20.668;2022-12-08T09:06:49;8.05;;;3.83;;
42988;SDS011;28622;43.716;20.668;2022-12-08T09:09:15;11.95;;;4.63;;
42988;SDS011;28622;43.716;20.668;2022-12-08T09:11:41;17.35;;;9.10;;
42988;SDS011;28622;43.716;20.668;2022-12-08T09:14:09;27.10;;;11.52;;
42988;SDS011;28622;43.716;20.668;2022-12-08T09:16:36;16.92;;;6.70;;
42988;SDS011;28622;43.716;20.668;2022-12-08T09:19:02;7.72;;;4.18;;
42988;SDS011;28622;43.716;20.668;2022-12-08T09:21:28;8.95;;;4.72;;
42988;SDS011;28622;43.716;20.668;2022-12-08T09:23:57;11.07;;;4.85;;
42988;SDS011;28622;43.716;20.668;2022-12-08T09:26:24;9.02;;;4.70;;
42988;SDS011;28622;43.716;20.668;2022-12-08T09:28:51;11.20;;;5.45;;
42988;SDS011;28622;43.716;20.668;2022-12-08T09:31:19;17.58;;;5.40;;
42988;SDS011;28622;43.716;20.668;2022-12-08T09:33:45;10.30;;;5.60;;
42988;SDS011;28622;43.716;20.668;2022-12-08T09:36:12;16.60;;;7.95;;
42988;SDS011;28622;43.716;20.668;2022-12-08T09:38:38;16.88;;;6.28;;
42988;SDS011;28622;43.716;20.668;2022-12-08T09:41:13;13.55;;;6.55;;
42988;SDS011;28622;43.716;20.668;2022-12-08T09:43:51;18.08;;;8.15;;
42988;SDS011;28622;43.716;20.668;2022-12-08T09:46:19;14.93;;;7.57;;
42988;SDS011;28622;43.716;20.668;2022-12-08T09:48:48;16.10;;;8.68;;
42988;SDS011;28622;43.716;20.668;2022-12-08T09:51:20;16.27;;;6.05;;
42988;SDS011;28622;43.716;20.668;2022-12-08T09:53:55;10.55;;;5.15;;
42988;SDS011;28622;43.716;20.668;2022-12-08T09:56:26;11.57;;;5.47;;
42988;SDS011;28622;43.716;20.668;2022-12-08T10:01:36;10.55;;;5.82;;
42988;SDS011;28622;43.716;20.668;2022-12-08T10:07:03;11.48;;;4.93;;
42988;SDS011;28622;43.716;20.668;2022-12-08T10:09:36;10.55;;;5.43;;
42988;SDS011;28622;43.716;20.668;2022-12-08T10:14:48;12.05;;;6.03;;
42988;SDS011;28622;43.716;20.668;2022-12-08T10:17:34;11.93;;;5.45;;
42988;SDS011;28622;43.716;20.668;2022-12-08T10:20:09;12.88;;;5.85;;
42988;SDS011;28622;43.716;20.668;2022-12-08T10:22:37;15.68;;;5.78;;
42988;SDS011;28622;43.716;20.668;2022-12-08T10:25:10;13.93;;;5.97;;
42988;SDS011;28622;43.716;20.668;2022-12-08T10:27:42;15.90;;;6.70;;
42988;SDS011;28622;43.716;20.668;2022-12-08T10:30:17;15.07;;;7.15;;
42988;SDS011;28622;43.716;20.668;2022-12-08T10:32:45;10.27;;;5.75;;
42988;SDS011;28622;43.716;20.668;2022-12-08T10:35:16;15.82;;;6.32;;
42988;SDS011;28622;43.716;20.668;2022-12-08T10:37:59;13.38;;;6.95;;
42988;SDS011;28622;43.716;20.668;2022-12-08T10:40:27;11.63;;;5.68;;
42988;SDS011;28622;43.716;20.668;2022-12-08T10:42:59;15.30;;;7.57;;
42988;SDS011;28622;43.716;20.668;2022-12-08T10:45:29;15.77;;;6.53;;
42988;SDS011;28622;43.716;20.668;2022-12-08T10:48:03;12.75;;;5.68;;
42988;SDS011;28622;43.716;20.668;2022-12-08T10:50:44;11.43;;;6.53;;
42988;SDS011;28622;43.716;20.668;2022-12-08T10:53:23;17.15;;;7.10;;
42988;SDS011;28622;43.716;20.668;2022-12-08T10:58:38;15.68;;;7.15;;
42988;SDS011;28622;43.716;20.668;2022-12-08T11:04:19;15.20;;;7.15;;
42988;SDS011;28622;43.716;20.668;2022-12-08T11:08:53;13.32;;;6.22;;
42988;SDS011;28622;43.716;20.668;2022-12-08T11:11:21;16.35;;;6.95;;
42988;SDS011;28622;43.716;20.668;2022-12-08T11:14:07;13.95;;;6.75;;
42988;SDS011;28622;43.716;20.668;2022-12-08T11:16:33;14.23;;;6.03;;
42988;SDS011;28622;43.716;20.668;2022-12-08T11:18:59;11.18;;;6.10;;
42988;SDS011;28622;43.716;20.668;2022-12-08T11:21:34;16.75;;;6.72;;
42988;SDS011;28622;43.716;20.668;2022-12-08T11:26:58;13.23;;;5.85;;
42988;SDS011;28622;43.716;20.668;2022-12-08T11:29:30;12.70;;;5.93;;
42988;SDS011;28622;43.716;20.668;2022-12-08T11:32:18;10.15;;;4.90;;
42988;SDS011;28622;43.716;20.668;2022-12-08T11:34:54;13.75;;;6.22;;
42988;SDS011;28622;43.716;20.668;2022-12-08T11:37:30;11.32;;;5.95;;
42988;SDS011;28622;43.716;20.668;2022-12-08T11:40:06;18.55;;;9.27;;
42988;SDS011;28622;43.716;20.668;2022-12-08T11:42:43;16.58;;;7.97;;
42988;SDS011;28622;43.716;20.668;2022-12-08T11:45:31;19.67;;;6.95;;
42988;SDS011;28622;43.716;20.668;2022-12-08T11:56:20;15.50;;;8.77;;
42988;SDS011;28622;43.716;20.668;2022-12-08T11:58:59;22.35;;;10.43;;
42988;SDS011;28622;43.716;20.668;2022-12-08T12:01:38;18.00;;;7.97;;
42988;SDS011;28622;43.716;20.668;2022-12-08T12:17:48;20.77;;;11.35;;
42988;SDS011;28622;43.716;20.668;2022-12-08T12:20:23;24.17;;;13.20;;
42988;SDS011;28622;43.716;20.668;2022-12-08T12:23:00;32.42;;;14.13;;
42988;SDS011;28622;43.716;20.668;2022-12-08T12:25:28;27.35;;;12.45;;
42988;SDS011;28622;43.716;20.668;2022-12-08T12:27:57;24.85;;;11.77;;
42988;SDS011;28622;43.716;20.668;2022-12-08T12:30:27;32.88;;;14.10;;
42988;SDS011;28622;43.716;20.668;2022-12-08T12:32:59;26.85;;;12.18;;
42988;SDS011;28622;43.716;20.668;2022-12-08T12:41:08;29.70;;;12.73;;
42988;SDS011;28622;43.716;20.668;2022-12-08T12:43:37;33.60;;;15.80;;
42988;SDS011;28622;43.716;20.668;2022-12-08T12:47:05;26.80;;;12.57;;
42988;SDS011;28622;43.716;20.668;2022-12-08T12:52:04;25.38;;;12.15;;
42988;SDS011;28622;43.716;20.668;2022-12-08T12:57:22;23.27;;;12.18;;
42988;SDS011;28622;43.716;20.668;2022-12-08T13:02:39;39.53;;;16.75;;
42988;SDS011;28622;43.716;20.668;2022-12-08T13:05:26;32.50;;;13.95;;
42988;SDS011;28622;43.716;20.668;2022-12-08T13:08:02;26.67;;;13.15;;
42988;SDS011;28622;43.716;20.668;2022-12-08T13:10:39;21.10;;;10.48;;
42988;SDS011;28622;43.716;20.668;2022-12-08T13:18:19;26.50;;;13.25;;
42988;SDS011;28622;43.716;20.668;2022-12-08T13:21:12;30.58;;;14.07;;
42988;SDS011;28622;43.716;20.668;2022-12-08T13:23:48;48.80;;;19.35;;
42988;SDS011;28622;43.716;20.668;2022-12-08T13:26:42;46.47;;;20.75;;
42988;SDS011;28622;43.716;20.668;2022-12-08T13:31:47;45.70;;;20.23;;
42988;SDS011;28622;43.716;20.668;2022-12-08T13:39:47;30.15;;;14.02;;
42988;SDS011;28622;43.716;20.668;2022-12-08T13:42:22;31.92;;;15.82;;
42988;SDS011;28622;43.716;20.668;2022-12-08T13:47:41;44.78;;;20.92;;
42988;SDS011;28622;43.716;20.668;2022-12-08T13:50:18;34.58;;;15.93;;
42988;SDS011;28622;43.716;20.668;2022-12-08T13:58:27;25.75;;;11.88;;
42988;SDS011;28622;43.716;20.668;2022-12-08T14:00:57;19.92;;;9.90;;
42988;SDS011;28622;43.716;20.668;2022-12-08T14:03:25;19.33;;;9.70;;
42988;SDS011;28622;43.716;20.668;2022-12-08T14:05:50;19.55;;;10.50;;
42988;SDS011;28622;43.716;20.668;2022-12-08T14:08:27;22.77;;;9.73;;
42988;SDS011;28622;43.716;20.668;2022-12-08T14:11:00;19.70;;;9.85;;
42988;SDS011;28622;43.716;20.668;2022-12-08T14:13:29;21.42;;;10.75;;
42988;SDS011;28622;43.716;20.668;2022-12-08T14:15:57;24.13;;;12.35;;
42988;SDS011;28622;43.716;20.668;2022-12-08T14:18:24;28.45;;;12.48;;
42988;SDS011;28622;43.716;20.668;2022-12-08T14:20:58;31.00;;;14.32;;
42988;SDS011;28622;43.716;20.668;2022-12-08T14:23:25;31.83;;;15.85;;
42988;SDS011;28622;43.716;20.668;2022-12-08T14:25:52;30.30;;;14.40;;
42988;SDS011;28622;43.716;20.668;2022-12-08T14:28:18;26.50;;;13.73;;
42988;SDS011;28622;43.716;20.668;2022-12-08T14:30:45;27.00;;;12.75;;
42988;SDS011;28622;43.716;20.668;2022-12-08T14:33:13;23.60;;;11.65;;
42988;SDS011;28622;43.716;20.668;2022-12-08T14:35:47;23.15;;;10.85;;
42988;SDS011;28622;43.716;20.668;2022-12-08T14:38:20;24.02;;;11.38;;
42988;SDS011;28622;43.716;20.668;2022-12-08T14:41:00;36.08;;;16.75;;
42988;SDS011;28622;43.716;20.668;2022-12-08T14:43:29;40.00;;;22.02;;
42988;SDS011;28622;43.716;20.668;2022-12-08T14:45:57;54.80;;;29.60;;
42988;SDS011;28622;43.716;20.668;2022-12-08T14:48:38;44.60;;;20.38;;
42988;SDS011;28622;43.716;20.668;2022-12-08T14:51:40;28.23;;;13.88;;
42988;SDS011;28622;43.716;20.668;2022-12-08T14:54:13;31.83;;;14.93;;
42988;SDS011;28622;43.716;20.668;2022-12-08T14:56:52;30.30;;;14.90;;
42988;SDS011;28622;43.716;20.668;2022-12-08T14:59:23;25.80;;;12.95;;
42988;SDS011;28622;43.716;20.668;2022-12-08T15:02:07;21.92;;;10.38;;
42988;SDS011;28622;43.716;20.668;2022-12-08T15:04:36;16.13;;;9.00;;
42988;SDS011;28622;43.716;20.668;2022-12-08T15:07:04;17.23;;;9.02;;
42988;SDS011;28622;43.716;20.668;2022-12-08T15:09:37;14.68;;;8.32;;
42988;SDS011;28622;43.716;20.668;2022-12-08T15:12:26;24.75;;;11.15;;
42988;SDS011;28622;43.716;20.668;2022-12-08T15:14:57;27.55;;;12.18;;
42988;SDS011;28622;43.716;20.668;2022-12-08T15:17:27;27.58;;;14.00;;
42988;SDS011;28622;43.716;20.668;2022-12-08T15:19:56;31.55;;;16.17;;
42988;SDS011;28622;43.716;20.668;2022-12-08T15:22:23;42.53;;;20.15;;
42988;SDS011;28622;43.716;20.668;2022-12-08T15:24:50;47.63;;;26.33;;
42988;SDS011;28622;43.716;20.668;2022-12-08T15:27:17;45.92;;;23.58;;
42988;SDS011;28622;43.716;20.668;2022-12-08T15:29:48;49.65;;;26.15;;
42988;SDS011;28622;43.716;20.668;2022-12-08T15:32:21;45.90;;;21.40;;
42988;SDS011;28622;43.716;20.668;2022-12-08T15:34:48;35.40;;;18.75;;
42988;SDS011;28622;43.716;20.668;2022-12-08T15:37:21;32.40;;;17.10;;
42988;SDS011;28622;43.716;20.668;2022-12-08T15:39:49;30.88;;;15.85;;
42988;SDS011;28622;43.716;20.668;2022-12-08T15:42:15;36.50;;;23.55;;
42988;SDS011;28622;43.716;20.668;2022-12-08T15:44:41;57.28;;;29.85;;
42988;SDS011;28622;43.716;20.668;2022-12-08T15:47:13;58.22;;;29.48;;
42988;SDS011;28622;43.716;20.668;2022-12-08T15:49:41;66.22;;;31.75;;
42988;SDS011;28622;43.716;20.668;2022-12-08T15:52:15;51.63;;;25.23;;
42988;SDS011;28622;43.716;20.668;2022-12-08T15:54:42;35.83;;;20.83;;
42988;SDS011;28622;43.716;20.668;2022-12-08T15:57:18;42.55;;;21.17;;
42988;SDS011;28622;43.716;20.668;2022-12-08T15:59:53;37.78;;;17.35;;
42988;SDS011;28622;43.716;20.668;2022-12-08T16:02:19;26.60;;;13.80;;
42988;SDS011;28622;43.716;20.668;2022-12-08T16:04:45;26.75;;;12.90;;
42988;SDS011;28622;43.716;20.668;2022-12-08T16:07:18;24.55;;;11.88;;
42988;SDS011;28622;43.716;20.668;2022-12-08T16:09:49;22.40;;;10.40;;
42988;SDS011;28622;43.716;20.668;2022-12-08T16:12:16;19.88;;;9.82;;
42988;SDS011;28622;43.716;20.668;2022-12-08T16:15:02;27.85;;;10.48;;
42988;SDS011;28622;43.716;20.668;2022-12-08T16:17:28;25.70;;;10.75;;
42988;SDS011;28622;43.716;20.668;2022-12-08T16:19:55;20.13;;;9.82;;
42988;SDS011;28622;43.716;20.668;2022-12-08T16:22:22;23.23;;;10.20;;
42988;SDS011;28622;43.716;20.668;2022-12-08T16:24:50;21.30;;;9.63;;
42988;SDS011;28622;43.716;20.668;2022-12-08T16:27:20;19.73;;;9.18;;
42988;SDS011;28622;43.716;20.668;2022-12-08T16:29:54;18.58;;;8.27;;
42988;SDS011;28622;43.716;20.668;2022-12-08T16:32:22;20.33;;;9.25;;